sensor_id;sensor_type;location;lat;lon;timestamp;P1;durP1;ratioP1;P2;durP2;ratioP2
18973;SDS011;9621;48.690;9.466;2023-07-20T00:02:04;5.57;;;2.35;;
18973;SDS011;9621;48.690;9.466;2023-07-20T00:04:33;2.83;;;1.40;;
18973;SDS011;9621;48.690;9.466;2023-07-20T00:07:00;3.22;;;2.17;;
18973;SDS011;9621;48.690;9.466;2023-07-20T00:09:27;8.15;;;2.10;;
18973;SDS011;9621;48.690;9.466;2023-07-20T00:11:53;4.55;;;1.80;;
18973;SDS011;9621;48.690;9.466;2023-07-20T00:14:22;4.22;;;1.90;;
18973;SDS011;9621;48.690;9.466;2023-07-20T00:16:49;3.67;;;2.00;;
18973;SDS011;9621;48.690;9.466;2023-07-20T00:19:21;2.45;;;1.70;;
18973;SDS011;9621;48.690;9.466;2023-07-20T00:21:48;4.18;;;2.03;;
18973;SDS011;9621;48.690;9.466;2023-07-20T00:24:15;6.38;;;2.17;;
18973;SDS011;9621;48.690;9.466;2023-07-20T00:26:42;3.40;;;1.77;;
18973;SDS011;9621;48.690;9.466;2023-07-20T00:29:08;4.57;;;1.60;;
18973;SDS011;9621;48.690;9.466;2023-07-20T00:31:37;2.60;;;1.88;;
18973;SDS011;9621;48.690;9.466;2023-07-20T00:34:04;3.55;;;1.90;;
18973;SDS011;9621;48.690;9.466;2023-07-20T00:36:31;3.78;;;1.67;;
18973;SDS011;9621;48.690;9.466;2023-07-20T00:38:58;3.88;;;1.92;;
18973;SDS011;9621;48.690;9.466;2023-07-20T00:41:25;4.22;;;1.98;;
18973;SDS011;9621;48.690;9.466;2023-07-20T00:43:54;3.40;;;2.25;;
18973;SDS011;9621;48.690;9.466;2023-07-20T00:46:21;3.35;;;2.10;;
18973;SDS011;9621;48.690;9.466;2023-07-20T00:48:51;5.70;;;2.03;;
18973;SDS011;9621;48.690;9.466;2023-07-20T00:51:19;2.97;;;1.73;;
18973;SDS011;9621;48.690;9.466;2023-07-20T00:53:46;3.38;;;1.90;;
18973;SDS011;9621;48.690;9.466;2023-07-20T00:56:13;4.65;;;2.30;;
18973;SDS011;9621;48.690;9.466;2023-07-20T00:58:40;3.92;;;1.90;;
18973;SDS011;9621;48.690;9.466;2023-07-20T01:01:07;3.90;;;1.73;;
18973;SDS011;9621;48.690;9.466;2023-07-20T01:03:34;2.65;;;1.60;;
18973;SDS011;9621;48.690;9.466;2023-07-20T01:06:04;5.05;;;1.88;;
18973;SDS011;9621;48.690;9.466;2023-07-20T01:08:39;3.78;;;2.13;;
18973;SDS011;9621;48.690;9.466;2023-07-20T01:11:12;2.80;;;1.60;;
18973;SDS011;9621;48.690;9.466;2023-07-20T01:13:43;4.97;;;1.80;;
18973;SDS011;9621;48.690;9.466;2023-07-20T01:16:10;3.67;;;2.08;;
18973;SDS011;9621;48.690;9.466;2023-07-20T01:18:37;2.80;;;1.90;;
18973;SDS011;9621;48.690;9.466;2023-07-20T01:21:08;4.13;;;2.10;;
18973;SDS011;9621;48.690;9.466;2023-07-20T01:23:44;4.00;;;2.38;;
18973;SDS011;9621;48.690;9.466;2023-07-20T01:26:42;5.68;;;2.20;;
18973;SDS011;9621;48.690;9.466;2023-07-20T01:29:36;5.18;;;1.70;;
18973;SDS011;9621;48.690;9.466;2023-07-20T01:32:17;3.00;;;1.75;;
18973;SDS011;9621;48.690;9.466;2023-07-20T01:34:47;3.03;;;2.13;;
18973;SDS011;9621;48.690;9.466;2023-07-20T01:37:15;5.25;;;2.00;;
18973;SDS011;9621;48.690;9.466;2023-07-20T01:39:45;4.30;;;2.28;;
18973;SDS011;9621;48.690;9.466;2023-07-20T01:42:12;5.40;;;2.17;;
18973;SDS011;9621;48.690;9.466;2023-07-20T01:44:39;5.00;;;2.20;;
18973;SDS011;9621;48.690;9.466;2023-07-20T01:47:06;4.45;;;2.25;;
18973;SDS011;9621;48.690;9.466;2023-07-20T01:49:34;3.28;;;2.08;;
18973;SDS011;9621;48.690;9.466;2023-07-20T01:52:02;3.47;;;2.15;;
18973;SDS011;9621;48.690;9.466;2023-07-20T01:54:29;3.45;;;2.00;;
18973;SDS011;9621;48.690;9.466;2023-07-20T01:56:56;4.00;;;2.15;;
18973;SDS011;9621;48.690;9.466;2023-07-20T01:59:23;2.88;;;1.80;;
18973;SDS011;9621;48.690;9.466;2023-07-20T02:01:50;5.15;;;2.10;;
18973;SDS011;9621;48.690;9.466;2023-07-20T02:04:17;2.97;;;2.00;;
18973;SDS011;9621;48.690;9.466;2023-07-20T02:06:45;2.25;;;1.80;;
18973;SDS011;9621;48.690;9.466;2023-07-20T02:09:12;4.28;;;2.30;;
18973;SDS011;9621;48.690;9.466;2023-07-20T02:11:39;3.47;;;1.90;;
18973;SDS011;9621;48.690;9.466;2023-07-20T02:14:06;5.13;;;2.08;;
18973;SDS011;9621;48.690;9.466;2023-07-20T02:16:33;4.95;;;2.15;;
18973;SDS011;9621;48.690;9.466;2023-07-20T02:18:59;2.63;;;2.10;;
18973;SDS011;9621;48.690;9.466;2023-07-20T02:21:26;3.05;;;2.00;;
18973;SDS011;9621;48.690;9.466;2023-07-20T02:23:55;6.65;;;2.22;;
18973;SDS011;9621;48.690;9.466;2023-07-20T02:26:22;3.85;;;2.40;;
18973;SDS011;9621;48.690;9.466;2023-07-20T02:28:48;4.78;;;2.03;;
18973;SDS011;9621;48.690;9.466;2023-07-20T02:31:16;3.72;;;2.08;;
18973;SDS011;9621;48.690;9.466;2023-07-20T02:33:42;5.82;;;2.20;;
18973;SDS011;9621;48.690;9.466;2023-07-20T02:36:09;4.88;;;2.30;;
18973;SDS011;9621;48.690;9.466;2023-07-20T02:38:36;5.40;;;2.28;;
18973;SDS011;9621;48.690;9.466;2023-07-20T02:41:05;4.22;;;2.20;;
18973;SDS011;9621;48.690;9.466;2023-07-20T02:43:31;3.53;;;2.30;;
18973;SDS011;9621;48.690;9.466;2023-07-20T02:45:58;3.97;;;2.00;;
18973;SDS011;9621;48.690;9.466;2023-07-20T02:48:25;3.30;;;2.10;;
18973;SDS011;9621;48.690;9.466;2023-07-20T02:50:52;5.53;;;2.30;;
18973;SDS011;9621;48.690;9.466;2023-07-20T02:53:19;3.50;;;2.03;;
18973;SDS011;9621;48.690;9.466;2023-07-20T02:55:45;2.53;;;1.77;;
18973;SDS011;9621;48.690;9.466;2023-07-20T02:58:14;4.50;;;2.30;;
18973;SDS011;9621;48.690;9.466;2023-07-20T03:00:42;5.95;;;2.13;;
18973;SDS011;9621;48.690;9.466;2023-07-20T03:03:09;3.67;;;2.25;;
18973;SDS011;9621;48.690;9.466;2023-07-20T03:05:36;4.78;;;2.45;;
18973;SDS011;9621;48.690;9.466;2023-07-20T03:08:04;3.95;;;2.60;;
18973;SDS011;9621;48.690;9.466;2023-07-20T03:10:31;4.82;;;2.40;;
18973;SDS011;9621;48.690;9.466;2023-07-20T03:12:58;3.42;;;2.25;;
18973;SDS011;9621;48.690;9.466;2023-07-20T03:15:26;4.43;;;2.47;;
18973;SDS011;9621;48.690;9.466;2023-07-20T03:17:54;5.72;;;2.50;;
18973;SDS011;9621;48.690;9.466;2023-07-20T03:20:21;6.93;;;2.60;;
18973;SDS011;9621;48.690;9.466;2023-07-20T03:22:48;4.53;;;2.58;;
18973;SDS011;9621;48.690;9.466;2023-07-20T03:25:15;4.28;;;2.42;;
18973;SDS011;9621;48.690;9.466;2023-07-20T03:27:42;5.68;;;2.60;;
18973;SDS011;9621;48.690;9.466;2023-07-20T03:30:09;4.82;;;2.55;;
18973;SDS011;9621;48.690;9.466;2023-07-20T03:32:38;4.15;;;2.65;;
18973;SDS011;9621;48.690;9.466;2023-07-20T03:35:06;5.28;;;2.50;;
18973;SDS011;9621;48.690;9.466;2023-07-20T03:37:33;4.47;;;2.53;;
18973;SDS011;9621;48.690;9.466;2023-07-20T03:40:01;4.78;;;2.70;;
18973;SDS011;9621;48.690;9.466;2023-07-20T03:42:30;4.07;;;2.47;;
18973;SDS011;9621;48.690;9.466;2023-07-20T03:44:56;4.53;;;2.33;;
18973;SDS011;9621;48.690;9.466;2023-07-20T03:47:23;3.88;;;2.30;;
18973;SDS011;9621;48.690;9.466;2023-07-20T03:49:52;4.13;;;2.42;;
18973;SDS011;9621;48.690;9.466;2023-07-20T03:52:18;4.28;;;2.38;;
18973;SDS011;9621;48.690;9.466;2023-07-20T03:54:45;3.20;;;2.55;;
18973;SDS011;9621;48.690;9.466;2023-07-20T03:57:12;4.97;;;2.72;;
18973;SDS011;9621;48.690;9.466;2023-07-20T03:59:39;3.60;;;2.47;;
18973;SDS011;9621;48.690;9.466;2023-07-20T04:02:10;5.78;;;2.70;;
18973;SDS011;9621;48.690;9.466;2023-07-20T04:04:37;5.07;;;2.70;;
18973;SDS011;9621;48.690;9.466;2023-07-20T04:07:06;5.32;;;2.55;;
18973;SDS011;9621;48.690;9.466;2023-07-20T04:09:33;3.53;;;2.47;;
18973;SDS011;9621;48.690;9.466;2023-07-20T04:12:00;3.20;;;2.40;;
18973;SDS011;9621;48.690;9.466;2023-07-20T04:14:27;4.22;;;2.40;;
18973;SDS011;9621;48.690;9.466;2023-07-20T04:16:53;4.15;;;2.53;;
18973;SDS011;9621;48.690;9.466;2023-07-20T04:19:20;5.05;;;2.63;;
18973;SDS011;9621;48.690;9.466;2023-07-20T04:21:47;5.30;;;2.67;;
18973;SDS011;9621;48.690;9.466;2023-07-20T04:24:16;2.97;;;2.22;;
18973;SDS011;9621;48.690;9.466;2023-07-20T04:26:42;4.47;;;2.58;;
18973;SDS011;9621;48.690;9.466;2023-07-20T04:29:09;4.80;;;2.38;;
18973;SDS011;9621;48.690;9.466;2023-07-20T04:31:36;5.72;;;2.60;;
18973;SDS011;9621;48.690;9.466;2023-07-20T04:34:03;4.63;;;2.75;;
18973;SDS011;9621;48.690;9.466;2023-07-20T04:36:30;3.72;;;2.45;;
18973;SDS011;9621;48.690;9.466;2023-07-20T04:38:57;5.40;;;2.70;;
18973;SDS011;9621;48.690;9.466;2023-07-20T04:41:25;8.43;;;2.33;;
18973;SDS011;9621;48.690;9.466;2023-07-20T04:43:52;5.28;;;2.30;;
18973;SDS011;9621;48.690;9.466;2023-07-20T04:46:19;3.97;;;2.30;;
18973;SDS011;9621;48.690;9.466;2023-07-20T04:48:46;4.57;;;2.20;;
18973;SDS011;9621;48.690;9.466;2023-07-20T04:51:14;3.70;;;2.40;;
18973;SDS011;9621;48.690;9.466;2023-07-20T04:53:42;5.30;;;2.33;;
18973;SDS011;9621;48.690;9.466;2023-07-20T04:56:09;5.13;;;2.50;;
18973;SDS011;9621;48.690;9.466;2023-07-20T04:58:37;4.13;;;2.20;;
18973;SDS011;9621;48.690;9.466;2023-07-20T05:01:04;4.90;;;2.70;;
18973;SDS011;9621;48.690;9.466;2023-07-20T05:03:31;5.32;;;2.47;;
18973;SDS011;9621;48.690;9.466;2023-07-20T05:05:58;4.10;;;2.13;;
18973;SDS011;9621;48.690;9.466;2023-07-20T05:08:24;2.95;;;2.28;;
18973;SDS011;9621;48.690;9.466;2023-07-20T05:10:52;4.32;;;1.92;;
18973;SDS011;9621;48.690;9.466;2023-07-20T05:13:19;5.88;;;2.50;;
18973;SDS011;9621;48.690;9.466;2023-07-20T05:15:50;4.53;;;2.13;;
18973;SDS011;9621;48.690;9.466;2023-07-20T05:18:18;2.90;;;2.17;;
18973;SDS011;9621;48.690;9.466;2023-07-20T05:20:46;4.53;;;2.03;;
18973;SDS011;9621;48.690;9.466;2023-07-20T05:23:13;4.15;;;2.17;;
18973;SDS011;9621;48.690;9.466;2023-07-20T05:25:40;4.93;;;2.10;;
18973;SDS011;9621;48.690;9.466;2023-07-20T05:28:07;6.50;;;2.45;;
18973;SDS011;9621;48.690;9.466;2023-07-20T05:30:34;3.25;;;2.10;;
18973;SDS011;9621;48.690;9.466;2023-07-20T05:33:02;6.30;;;2.08;;
18973;SDS011;9621;48.690;9.466;2023-07-20T05:35:29;3.30;;;2.00;;
18973;SDS011;9621;48.690;9.466;2023-07-20T05:37:56;3.50;;;2.05;;
18973;SDS011;9621;48.690;9.466;2023-07-20T05:40:23;3.40;;;2.00;;
18973;SDS011;9621;48.690;9.466;2023-07-20T05:42:49;4.35;;;2.20;;
18973;SDS011;9621;48.690;9.466;2023-07-20T05:45:18;4.80;;;2.20;;
18973;SDS011;9621;48.690;9.466;2023-07-20T05:47:45;3.85;;;2.40;;
18973;SDS011;9621;48.690;9.466;2023-07-20T05:50:14;3.13;;;2.10;;
18973;SDS011;9621;48.690;9.466;2023-07-20T05:52:41;4.07;;;1.92;;
18973;SDS011;9621;48.690;9.466;2023-07-20T05:55:08;3.50;;;1.85;;
18973;SDS011;9621;48.690;9.466;2023-07-20T05:57:35;5.00;;;2.20;;
18973;SDS011;9621;48.690;9.466;2023-07-20T06:00:07;3.75;;;2.20;;
18973;SDS011;9621;48.690;9.466;2023-07-20T06:02:35;2.05;;;1.80;;
18973;SDS011;9621;48.690;9.466;2023-07-20T06:05:01;3.92;;;1.85;;
18973;SDS011;9621;48.690;9.466;2023-07-20T06:07:30;7.40;;;2.35;;
18973;SDS011;9621;48.690;9.466;2023-07-20T06:09:58;2.63;;;1.90;;
18973;SDS011;9621;48.690;9.466;2023-07-20T06:12:25;3.50;;;1.80;;
18973;SDS011;9621;48.690;9.466;2023-07-20T06:14:52;4.53;;;2.35;;
18973;SDS011;9621;48.690;9.466;2023-07-20T06:17:19;4.35;;;2.22;;
18973;SDS011;9621;48.690;9.466;2023-07-20T06:19:46;2.47;;;2.00;;
18973;SDS011;9621;48.690;9.466;2023-07-20T06:22:13;3.28;;;1.95;;
18973;SDS011;9621;48.690;9.466;2023-07-20T06:24:42;5.03;;;2.00;;
18973;SDS011;9621;48.690;9.466;2023-07-20T06:27:09;4.22;;;2.15;;
18973;SDS011;9621;48.690;9.466;2023-07-20T06:29:36;3.47;;;1.88;;
18973;SDS011;9621;48.690;9.466;2023-07-20T06:32:04;3.80;;;2.10;;
18973;SDS011;9621;48.690;9.466;2023-07-20T06:34:31;3.70;;;1.92;;
18973;SDS011;9621;48.690;9.466;2023-07-20T06:37:02;4.75;;;1.75;;
18973;SDS011;9621;48.690;9.466;2023-07-20T06:39:29;2.00;;;1.80;;
18973;SDS011;9621;48.690;9.466;2023-07-20T06:41:57;3.72;;;2.08;;
18973;SDS011;9621;48.690;9.466;2023-07-20T06:44:24;4.90;;;2.00;;
18973;SDS011;9621;48.690;9.466;2023-07-20T06:46:51;4.32;;;2.10;;
18973;SDS011;9621;48.690;9.466;2023-07-20T06:49:24;7.38;;;2.15;;
18973;SDS011;9621;48.690;9.466;2023-07-20T06:51:52;2.65;;;1.90;;
18973;SDS011;9621;48.690;9.466;2023-07-20T06:54:19;2.83;;;1.85;;
18973;SDS011;9621;48.690;9.466;2023-07-20T06:56:46;3.63;;;1.70;;
18973;SDS011;9621;48.690;9.466;2023-07-20T06:59:14;3.85;;;1.80;;
18973;SDS011;9621;48.690;9.466;2023-07-20T07:01:41;4.20;;;1.80;;
18973;SDS011;9621;48.690;9.466;2023-07-20T07:04:09;3.05;;;1.90;;
18973;SDS011;9621;48.690;9.466;2023-07-20T07:06:36;5.57;;;1.85;;
18973;SDS011;9621;48.690;9.466;2023-07-20T07:09:03;6.95;;;2.00;;
18973;SDS011;9621;48.690;9.466;2023-07-20T07:11:31;3.47;;;2.13;;
18973;SDS011;9621;48.690;9.466;2023-07-20T07:13:58;7.25;;;1.75;;
18973;SDS011;9621;48.690;9.466;2023-07-20T07:16:26;3.40;;;1.83;;
18973;SDS011;9621;48.690;9.466;2023-07-20T07:18:53;3.28;;;1.70;;
18973;SDS011;9621;48.690;9.466;2023-07-20T07:21:20;2.55;;;1.58;;
18973;SDS011;9621;48.690;9.466;2023-07-20T07:23:47;4.22;;;1.95;;
18973;SDS011;9621;48.690;9.466;2023-07-20T07:26:14;3.97;;;1.90;;
18973;SDS011;9621;48.690;9.466;2023-07-20T07:28:41;5.72;;;2.00;;
18973;SDS011;9621;48.690;9.466;2023-07-20T07:31:08;4.10;;;1.70;;
18973;SDS011;9621;48.690;9.466;2023-07-20T07:33:37;2.72;;;1.67;;
18973;SDS011;9621;48.690;9.466;2023-07-20T07:36:04;2.67;;;1.60;;
18973;SDS011;9621;48.690;9.466;2023-07-20T07:38:31;2.53;;;1.25;;
18973;SDS011;9621;48.690;9.466;2023-07-20T07:40:58;2.95;;;1.75;;
18973;SDS011;9621;48.690;9.466;2023-07-20T07:43:25;1.65;;;1.45;;
18973;SDS011;9621;48.690;9.466;2023-07-20T07:45:53;4.65;;;1.45;;
18973;SDS011;9621;48.690;9.466;2023-07-20T07:48:20;2.13;;;1.25;;
18973;SDS011;9621;48.690;9.466;2023-07-20T07:50:49;6.05;;;2.03;;
18973;SDS011;9621;48.690;9.466;2023-07-20T07:53:16;4.50;;;1.80;;
18973;SDS011;9621;48.690;9.466;2023-07-20T07:55:43;5.68;;;1.50;;
18973;SDS011;9621;48.690;9.466;2023-07-20T07:58:10;3.08;;;1.70;;
18973;SDS011;9621;48.690;9.466;2023-07-20T08:00:37;3.28;;;1.73;;
18973;SDS011;9621;48.690;9.466;2023-07-20T08:03:05;4.00;;;1.75;;
18973;SDS011;9621;48.690;9.466;2023-07-20T08:05:33;4.57;;;1.60;;
18973;SDS011;9621;48.690;9.466;2023-07-20T08:08:01;2.75;;;1.52;;
18973;SDS011;9621;48.690;9.466;2023-07-20T08:10:28;3.63;;;1.65;;
18973;SDS011;9621;48.690;9.466;2023-07-20T08:12:55;3.83;;;1.50;;
18973;SDS011;9621;48.690;9.466;2023-07-20T08:15:22;5.00;;;1.63;;
18973;SDS011;9621;48.690;9.466;2023-07-20T08:17:49;2.95;;;1.48;;
18973;SDS011;9621;48.690;9.466;2023-07-20T08:20:17;3.05;;;1.60;;
18973;SDS011;9621;48.690;9.466;2023-07-20T08:22:44;3.60;;;1.63;;
18973;SDS011;9621;48.690;9.466;2023-07-20T08:25:12;3.13;;;1.48;;
18973;SDS011;9621;48.690;9.466;2023-07-20T08:27:39;3.67;;;1.60;;
18973;SDS011;9621;48.690;9.466;2023-07-20T08:30:07;3.90;;;1.80;;
18973;SDS011;9621;48.690;9.466;2023-07-20T08:32:34;5.70;;;1.60;;
18973;SDS011;9621;48.690;9.466;2023-07-20T08:35:01;2.55;;;1.70;;
18973;SDS011;9621;48.690;9.466;2023-07-20T08:37:28;4.22;;;1.73;;
18973;SDS011;9621;48.690;9.466;2023-07-20T08:39:55;3.55;;;1.80;;
18973;SDS011;9621;48.690;9.466;2023-07-20T08:42:23;5.43;;;1.38;;
18973;SDS011;9621;48.690;9.466;2023-07-20T08:44:52;2.60;;;1.50;;
18973;SDS011;9621;48.690;9.466;2023-07-20T08:47:20;4.68;;;1.70;;
18973;SDS011;9621;48.690;9.466;2023-07-20T08:49:48;2.40;;;1.35;;
18973;SDS011;9621;48.690;9.466;2023-07-20T08:52:15;2.30;;;1.35;;
18973;SDS011;9621;48.690;9.466;2023-07-20T08:54:42;2.90;;;1.58;;
18973;SDS011;9621;48.690;9.466;2023-07-20T08:57:09;2.78;;;1.83;;
18973;SDS011;9621;48.690;9.466;2023-07-20T08:59:41;4.50;;;1.58;;
18973;SDS011;9621;48.690;9.466;2023-07-20T09:02:09;3.00;;;1.80;;
18973;SDS011;9621;48.690;9.466;2023-07-20T09:04:41;3.03;;;1.60;;
18973;SDS011;9621;48.690;9.466;2023-07-20T09:07:09;3.95;;;1.63;;
18973;SDS011;9621;48.690;9.466;2023-07-20T09:09:39;5.47;;;1.77;;
18973;SDS011;9621;48.690;9.466;2023-07-20T09:12:12;4.20;;;1.98;;
18973;SDS011;9621;48.690;9.466;2023-07-20T09:14:43;2.60;;;1.80;;
18973;SDS011;9621;48.690;9.466;2023-07-20T09:17:12;3.33;;;2.00;;
18973;SDS011;9621;48.690;9.466;2023-07-20T09:19:45;2.47;;;1.48;;
18973;SDS011;9621;48.690;9.466;2023-07-20T09:22:13;2.08;;;1.58;;
18973;SDS011;9621;48.690;9.466;2023-07-20T09:24:40;16.75;;;1.80;;
18973;SDS011;9621;48.690;9.466;2023-07-20T09:27:07;3.10;;;1.20;;
18973;SDS011;9621;48.690;9.466;2023-07-20T09:29:36;4.35;;;1.70;;
18973;SDS011;9621;48.690;9.466;2023-07-20T09:32:17;2.65;;;1.40;;
18973;SDS011;9621;48.690;9.466;2023-07-20T09:34:45;3.03;;;1.58;;
18973;SDS011;9621;48.690;9.466;2023-07-20T09:37:12;2.92;;;1.70;;
18973;SDS011;9621;48.690;9.466;2023-07-20T09:39:42;1.90;;;1.60;;
18973;SDS011;9621;48.690;9.466;2023-07-20T09:42:10;4.03;;;1.48;;
18973;SDS011;9621;48.690;9.466;2023-07-20T09:44:38;3.42;;;1.35;;
18973;SDS011;9621;48.690;9.466;2023-07-20T09:47:07;3.90;;;1.70;;
18973;SDS011;9621;48.690;9.466;2023-07-20T09:49:38;5.25;;;1.70;;
18973;SDS011;9621;48.690;9.466;2023-07-20T09:52:05;5.25;;;1.73;;
18973;SDS011;9621;48.690;9.466;2023-07-20T09:54:34;7.03;;;1.90;;
18973;SDS011;9621;48.690;9.466;2023-07-20T09:57:03;2.88;;;1.55;;
18973;SDS011;9621;48.690;9.466;2023-07-20T09:59:33;3.10;;;1.77;;
18973;SDS011;9621;48.690;9.466;2023-07-20T10:02:00;2.22;;;1.55;;
18973;SDS011;9621;48.690;9.466;2023-07-20T10:04:33;2.13;;;1.48;;
18973;SDS011;9621;48.690;9.466;2023-07-20T10:07:02;1.98;;;1.60;;
18973;SDS011;9621;48.690;9.466;2023-07-20T10:09:34;3.47;;;1.45;;
18973;SDS011;9621;48.690;9.466;2023-07-20T10:12:04;2.83;;;1.63;;
18973;SDS011;9621;48.690;9.466;2023-07-20T10:14:33;2.45;;;1.70;;
18973;SDS011;9621;48.690;9.466;2023-07-20T10:17:04;2.78;;;1.60;;
18973;SDS011;9621;48.690;9.466;2023-07-20T10:19:43;3.22;;;1.45;;
18973;SDS011;9621;48.690;9.466;2023-07-20T10:22:14;2.55;;;1.73;;
18973;SDS011;9621;48.690;9.466;2023-07-20T10:24:44;4.00;;;1.70;;
18973;SDS011;9621;48.690;9.466;2023-07-20T10:27:13;2.13;;;1.23;;
18973;SDS011;9621;48.690;9.466;2023-07-20T10:29:40;4.75;;;1.55;;
18973;SDS011;9621;48.690;9.466;2023-07-20T10:32:08;3.80;;;1.60;;
18973;SDS011;9621;48.690;9.466;2023-07-20T10:34:37;2.95;;;1.55;;
18973;SDS011;9621;48.690;9.466;2023-07-20T10:37:04;2.50;;;1.50;;
18973;SDS011;9621;48.690;9.466;2023-07-20T10:39:32;2.08;;;1.40;;
18973;SDS011;9621;48.690;9.466;2023-07-20T10:42:00;4.15;;;1.42;;
18973;SDS011;9621;48.690;9.466;2023-07-20T10:44:28;4.72;;;1.58;;
18973;SDS011;9621;48.690;9.466;2023-07-20T10:46:59;2.65;;;1.80;;
18973;SDS011;9621;48.690;9.466;2023-07-20T10:49:26;2.70;;;1.70;;
18973;SDS011;9621;48.690;9.466;2023-07-20T10:51:58;5.63;;;1.90;;
18973;SDS011;9621;48.690;9.466;2023-07-20T10:54:46;2.85;;;1.30;;
18973;SDS011;9621;48.690;9.466;2023-07-20T10:57:21;6.32;;;1.70;;
18973;SDS011;9621;48.690;9.466;2023-07-20T11:00:06;2.80;;;1.75;;
18973;SDS011;9621;48.690;9.466;2023-07-20T11:02:42;1.65;;;1.48;;
18973;SDS011;9621;48.690;9.466;2023-07-20T11:08:04;3.33;;;1.50;;
18973;SDS011;9621;48.690;9.466;2023-07-20T11:10:32;3.60;;;1.40;;
18973;SDS011;9621;48.690;9.466;2023-07-20T11:13:18;3.35;;;1.48;;
18973;SDS011;9621;48.690;9.466;2023-07-20T11:15:47;7.13;;;1.60;;
18973;SDS011;9621;48.690;9.466;2023-07-20T11:18:28;2.05;;;1.60;;
18973;SDS011;9621;48.690;9.466;2023-07-20T11:20:55;2.40;;;1.40;;
18973;SDS011;9621;48.690;9.466;2023-07-20T11:23:24;2.20;;;1.23;;
18973;SDS011;9621;48.690;9.466;2023-07-20T11:25:52;2.15;;;1.30;;
18973;SDS011;9621;48.690;9.466;2023-07-20T11:28:19;5.63;;;1.50;;
18973;SDS011;9621;48.690;9.466;2023-07-20T11:30:49;3.92;;;1.58;;
18973;SDS011;9621;48.690;9.466;2023-07-20T11:33:18;4.05;;;1.50;;
18973;SDS011;9621;48.690;9.466;2023-07-20T11:35:45;2.83;;;1.30;;
18973;SDS011;9621;48.690;9.466;2023-07-20T11:38:12;2.97;;;1.60;;
18973;SDS011;9621;48.690;9.466;2023-07-20T11:40:43;2.13;;;1.40;;
18973;SDS011;9621;48.690;9.466;2023-07-20T11:43:10;5.45;;;1.42;;
18973;SDS011;9621;48.690;9.466;2023-07-20T11:45:38;5.03;;;1.38;;
18973;SDS011;9621;48.690;9.466;2023-07-20T11:48:05;3.42;;;1.52;;
18973;SDS011;9621;48.690;9.466;2023-07-20T11:50:32;4.72;;;1.60;;
18973;SDS011;9621;48.690;9.466;2023-07-20T11:53:05;4.28;;;1.70;;
18973;SDS011;9621;48.690;9.466;2023-07-20T11:55:32;2.28;;;1.52;;
18973;SDS011;9621;48.690;9.466;2023-07-20T11:58:04;1.67;;;1.20;;
18973;SDS011;9621;48.690;9.466;2023-07-20T12:00:32;1.17;;;1.02;;
18973;SDS011;9621;48.690;9.466;2023-07-20T12:02:59;1.98;;;1.40;;
18973;SDS011;9621;48.690;9.466;2023-07-20T12:05:26;1.45;;;1.20;;
18973;SDS011;9621;48.690;9.466;2023-07-20T12:07:54;2.75;;;1.40;;
18973;SDS011;9621;48.690;9.466;2023-07-20T12:10:24;3.65;;;1.17;;
18973;SDS011;9621;48.690;9.466;2023-07-20T12:12:52;1.92;;;1.20;;
18973;SDS011;9621;48.690;9.466;2023-07-20T12:15:23;1.98;;;1.35;;
18973;SDS011;9621;48.690;9.466;2023-07-20T12:17:52;2.25;;;1.30;;
18973;SDS011;9621;48.690;9.466;2023-07-20T12:20:26;3.42;;;1.20;;
18973;SDS011;9621;48.690;9.466;2023-07-20T12:22:56;2.17;;;1.30;;
18973;SDS011;9621;48.690;9.466;2023-07-20T12:25:32;2.08;;;1.20;;
18973;SDS011;9621;48.690;9.466;2023-07-20T12:28:09;2.40;;;1.02;;
18973;SDS011;9621;48.690;9.466;2023-07-20T12:30:38;2.88;;;1.35;;
18973;SDS011;9621;48.690;9.466;2023-07-20T12:33:06;2.05;;;1.23;;
18973;SDS011;9621;48.690;9.466;2023-07-20T12:35:33;5.00;;;1.45;;
18973;SDS011;9621;48.690;9.466;2023-07-20T12:38:00;1.40;;;1.10;;
18973;SDS011;9621;48.690;9.466;2023-07-20T12:40:28;1.85;;;1.02;;
18973;SDS011;9621;48.690;9.466;2023-07-20T12:42:55;1.63;;;1.00;;
18973;SDS011;9621;48.690;9.466;2023-07-20T12:45:23;2.47;;;1.40;;
18973;SDS011;9621;48.690;9.466;2023-07-20T12:47:51;2.42;;;1.27;;
18973;SDS011;9621;48.690;9.466;2023-07-20T12:50:18;2.45;;;1.30;;
18973;SDS011;9621;48.690;9.466;2023-07-20T12:52:45;2.80;;;1.10;;
18973;SDS011;9621;48.690;9.466;2023-07-20T12:55:12;1.50;;;1.08;;
18973;SDS011;9621;48.690;9.466;2023-07-20T12:57:40;4.05;;;1.23;;
18973;SDS011;9621;48.690;9.466;2023-07-20T13:00:08;3.58;;;1.10;;
18973;SDS011;9621;48.690;9.466;2023-07-20T13:02:37;1.50;;;0.95;;
18973;SDS011;9621;48.690;9.466;2023-07-20T13:05:06;1.90;;;1.20;;
18973;SDS011;9621;48.690;9.466;2023-07-20T13:07:34;1.52;;;1.15;;
18973;SDS011;9621;48.690;9.466;2023-07-20T13:10:02;1.92;;;1.15;;
18973;SDS011;9621;48.690;9.466;2023-07-20T13:12:29;4.30;;;1.30;;
18973;SDS011;9621;48.690;9.466;2023-07-20T13:14:57;1.50;;;1.05;;
18973;SDS011;9621;48.690;9.466;2023-07-20T13:17:25;1.38;;;1.00;;
18973;SDS011;9621;48.690;9.466;2023-07-20T13:19:52;2.38;;;1.20;;
18973;SDS011;9621;48.690;9.466;2023-07-20T13:22:21;4.35;;;1.15;;
18973;SDS011;9621;48.690;9.466;2023-07-20T13:24:49;5.53;;;1.20;;
18973;SDS011;9621;48.690;9.466;2023-07-20T13:27:16;2.35;;;1.30;;
18973;SDS011;9621;48.690;9.466;2023-07-20T13:29:44;1.33;;;1.23;;
18973;SDS011;9621;48.690;9.466;2023-07-20T13:32:12;2.03;;;1.30;;
18973;SDS011;9621;48.690;9.466;2023-07-20T13:34:39;2.42;;;1.33;;
18973;SDS011;9621;48.690;9.466;2023-07-20T13:37:06;2.72;;;0.95;;
18973;SDS011;9621;48.690;9.466;2023-07-20T13:39:36;2.53;;;1.23;;
18973;SDS011;9621;48.690;9.466;2023-07-20T13:42:03;2.30;;;1.33;;
18973;SDS011;9621;48.690;9.466;2023-07-20T13:44:30;1.77;;;1.20;;
18973;SDS011;9621;48.690;9.466;2023-07-20T13:46:57;2.00;;;1.35;;
18973;SDS011;9621;48.690;9.466;2023-07-20T13:49:25;1.45;;;1.05;;
18973;SDS011;9621;48.690;9.466;2023-07-20T13:51:53;3.08;;;1.35;;
18973;SDS011;9621;48.690;9.466;2023-07-20T13:54:29;2.45;;;1.30;;
18973;SDS011;9621;48.690;9.466;2023-07-20T13:56:57;1.58;;;1.10;;
18973;SDS011;9621;48.690;9.466;2023-07-20T13:59:24;2.42;;;1.33;;
18973;SDS011;9621;48.690;9.466;2023-07-20T14:02:00;3.33;;;1.13;;
18973;SDS011;9621;48.690;9.466;2023-07-20T14:04:31;1.73;;;1.02;;
18973;SDS011;9621;48.690;9.466;2023-07-20T14:06:57;1.67;;;1.20;;
18973;SDS011;9621;48.690;9.466;2023-07-20T14:09:24;4.38;;;1.17;;
18973;SDS011;9621;48.690;9.466;2023-07-20T14:11:51;2.15;;;1.08;;
18973;SDS011;9621;48.690;9.466;2023-07-20T14:14:19;1.77;;;1.10;;
18973;SDS011;9621;48.690;9.466;2023-07-20T14:16:46;2.63;;;1.30;;
18973;SDS011;9621;48.690;9.466;2023-07-20T14:19:13;1.90;;;1.15;;
18973;SDS011;9621;48.690;9.466;2023-07-20T14:21:40;2.17;;;1.50;;
18973;SDS011;9621;48.690;9.466;2023-07-20T14:24:07;2.35;;;1.27;;
18973;SDS011;9621;48.690;9.466;2023-07-20T14:26:34;1.77;;;1.20;;
18973;SDS011;9621;48.690;9.466;2023-07-20T14:29:01;2.13;;;1.20;;
18973;SDS011;9621;48.690;9.466;2023-07-20T14:31:29;1.35;;;0.93;;
18973;SDS011;9621;48.690;9.466;2023-07-20T14:33:56;2.42;;;1.30;;
18973;SDS011;9621;48.690;9.466;2023-07-20T14:36:23;1.90;;;1.02;;
18973;SDS011;9621;48.690;9.466;2023-07-20T14:38:50;3.65;;;1.35;;
18973;SDS011;9621;48.690;9.466;2023-07-20T14:41:17;1.77;;;1.05;;
18973;SDS011;9621;48.690;9.466;2023-07-20T14:43:44;2.85;;;1.20;;
18973;SDS011;9621;48.690;9.466;2023-07-20T14:46:13;2.67;;;1.05;;
18973;SDS011;9621;48.690;9.466;2023-07-20T14:48:42;2.38;;;1.42;;
18973;SDS011;9621;48.690;9.466;2023-07-20T14:51:09;3.88;;;1.50;;
18973;SDS011;9621;48.690;9.466;2023-07-20T14:53:36;2.10;;;1.02;;
18973;SDS011;9621;48.690;9.466;2023-07-20T14:56:03;2.50;;;1.35;;
18973;SDS011;9621;48.690;9.466;2023-07-20T14:58:31;2.08;;;1.10;;
18973;SDS011;9621;48.690;9.466;2023-07-20T15:00:58;1.80;;;1.30;;
18973;SDS011;9621;48.690;9.466;2023-07-20T15:03:24;4.97;;;1.08;;
18973;SDS011;9621;48.690;9.466;2023-07-20T15:05:53;1.48;;;1.25;;
18973;SDS011;9621;48.690;9.466;2023-07-20T15:08:20;1.70;;;1.20;;
18973;SDS011;9621;48.690;9.466;2023-07-20T15:10:48;2.97;;;1.10;;